MyFlightRoute.com
DEPARTURE
APPLE VALLEY, CA
Elevation:
3062
Runways:
18/36 - 6498x150 - ASPH-G
8/26 - 4099x60 - ASPH-G
CTAF:
122.8
DESTINATION
BAKERSFIELD, CA
Elevation:
510
TPA:
1510 (est.)
Runways:
12L/30R - 10855x150 - ASPH-G
12R/30L - 7703x100 - ASPH-E
ATIS:
118.6 661-399-9425
Tower:
BAKERSFIELD TOWER 118.1
Ground:
121.7


105.4 NM300° True-14° Var285° HDG



Flight Plan:
(click to file on line)

1. Type
2. Aircraft Identification
3. Aircraft Type / Special Equipment
4. True Airspeed
kts
5. Departure Airport
(ICAO code)
6. Arriving Airport
(ICAO code)
7. Cruising Altitude
ft
8. Alternate Airport
(ICAO code)
9. Route of Flight
10. Remarks


00:00:00 Departure ATIS: Destination ATIS:




Clearance Limit:
Route:
Altitude: Expect in minutes
Frequency:
Transponder: (7500 Hijack / 7600 Lost Comms / 7700 Emergency)


MyFlightRoute - METAR

KDAG 121050Z AUTO 29008KT 10SM CLR 19/M11 A3012 RMK AO2 SLP174 T01941106
Time: 2019-11-12T10:50:00Z
1573556216
Winds: 290 @ 8 kts
Visibility: 10.0 sm
Clouds (AGL): CLR
Temperature: 19.4 C
Dew Point: -10.6 C
Pressure: 30.121063 in Hgbr

MyFlightRoute - METAR

KBFL 121054Z AUTO 13004KT 7SM CLR 12/03 A3008 RMK AO2 SLP182 T01220033
Time: 2019-11-12T10:54:00Z
1573556216
Winds: 130 @ 4 kts
Visibility: 7.0 sm
Clouds (AGL): CLR
Temperature: 12.2 C
Dew Point: 3.3 C
Pressure: 30.079725 in Hgbr


Notes:

Data extracted from FAA Digital Chart Supplement. Effective: 0901Z Thursday, Oct 10,2019 to 0901Z Thursday, Dec 5, 2019
Current ATIS data is provided courtisy of PilotEdge.
Not intended for real world navigation.